sensor_id;sensor_type;location;lat;lon;timestamp;P1;durP1;ratioP1;P2;durP2;ratioP2
62580;SDS011;48640;48.770;9.148;2022-08-01T00:01:46;3.15;;;1.73;;
62580;SDS011;48640;48.770;9.148;2022-08-01T00:04:13;2.72;;;1.75;;
62580;SDS011;48640;48.770;9.148;2022-08-01T00:06:39;4.22;;;1.95;;
62580;SDS011;48640;48.770;9.148;2022-08-01T00:09:06;3.33;;;1.65;;
62580;SDS011;48640;48.770;9.148;2022-08-01T00:11:33;3.08;;;1.83;;
62580;SDS011;48640;48.770;9.148;2022-08-01T00:14:00;5.18;;;1.98;;
62580;SDS011;48640;48.770;9.148;2022-08-01T00:16:26;4.07;;;1.92;;
62580;SDS011;48640;48.770;9.148;2022-08-01T00:18:55;3.20;;;1.80;;
62580;SDS011;48640;48.770;9.148;2022-08-01T00:21:21;2.88;;;1.90;;
62580;SDS011;48640;48.770;9.148;2022-08-01T00:23:48;2.67;;;1.75;;
62580;SDS011;48640;48.770;9.148;2022-08-01T00:26:15;2.70;;;1.80;;
62580;SDS011;48640;48.770;9.148;2022-08-01T00:28:42;3.33;;;2.03;;
62580;SDS011;48640;48.770;9.148;2022-08-01T00:31:09;2.78;;;1.77;;
62580;SDS011;48640;48.770;9.148;2022-08-01T00:33:36;2.75;;;1.70;;
62580;SDS011;48640;48.770;9.148;2022-08-01T00:36:04;3.58;;;1.70;;
62580;SDS011;48640;48.770;9.148;2022-08-01T00:38:31;2.25;;;1.75;;
62580;SDS011;48640;48.770;9.148;2022-08-01T00:40:58;4.43;;;1.90;;
62580;SDS011;48640;48.770;9.148;2022-08-01T00:43:25;4.00;;;2.00;;
62580;SDS011;48640;48.770;9.148;2022-08-01T00:45:51;3.78;;;1.55;;
62580;SDS011;48640;48.770;9.148;2022-08-01T00:48:18;2.38;;;1.58;;
62580;SDS011;48640;48.770;9.148;2022-08-01T00:50:45;2.80;;;2.05;;
62580;SDS011;48640;48.770;9.148;2022-08-01T00:53:14;2.97;;;2.00;;
62580;SDS011;48640;48.770;9.148;2022-08-01T00:55:40;2.58;;;1.58;;
62580;SDS011;48640;48.770;9.148;2022-08-01T00:58:08;3.58;;;1.95;;
62580;SDS011;48640;48.770;9.148;2022-08-01T01:00:35;4.35;;;1.80;;
62580;SDS011;48640;48.770;9.148;2022-08-01T01:03:02;3.80;;;2.25;;
62580;SDS011;48640;48.770;9.148;2022-08-01T01:05:29;3.15;;;1.98;;
62580;SDS011;48640;48.770;9.148;2022-08-01T01:08:02;2.75;;;1.85;;
62580;SDS011;48640;48.770;9.148;2022-08-01T01:10:46;2.90;;;2.13;;
62580;SDS011;48640;48.770;9.148;2022-08-01T01:13:22;2.92;;;2.00;;
62580;SDS011;48640;48.770;9.148;2022-08-01T01:15:58;2.83;;;1.80;;
62580;SDS011;48640;48.770;9.148;2022-08-01T01:18:27;3.10;;;1.70;;
62580;SDS011;48640;48.770;9.148;2022-08-01T01:21:00;2.45;;;1.70;;
62580;SDS011;48640;48.770;9.148;2022-08-01T01:23:43;3.10;;;1.90;;
62580;SDS011;48640;48.770;9.148;2022-08-01T01:26:25;2.38;;;1.60;;
62580;SDS011;48640;48.770;9.148;2022-08-01T01:29:06;3.58;;;2.03;;
62580;SDS011;48640;48.770;9.148;2022-08-01T01:31:40;4.00;;;2.38;;
62580;SDS011;48640;48.770;9.148;2022-08-01T01:34:11;2.70;;;1.70;;
62580;SDS011;48640;48.770;9.148;2022-08-01T01:36:39;2.80;;;1.70;;
62580;SDS011;48640;48.770;9.148;2022-08-01T01:39:09;3.33;;;2.20;;
62580;SDS011;48640;48.770;9.148;2022-08-01T01:41:37;3.00;;;2.20;;
62580;SDS011;48640;48.770;9.148;2022-08-01T01:44:07;2.42;;;1.67;;
62580;SDS011;48640;48.770;9.148;2022-08-01T01:46:36;3.22;;;2.35;;
62580;SDS011;48640;48.770;9.148;2022-08-01T01:49:04;3.35;;;2.20;;
62580;SDS011;48640;48.770;9.148;2022-08-01T01:51:35;3.92;;;2.22;;
62580;SDS011;48640;48.770;9.148;2022-08-01T01:54:03;3.25;;;2.25;;
62580;SDS011;48640;48.770;9.148;2022-08-01T01:56:31;4.05;;;1.70;;
62580;SDS011;48640;48.770;9.148;2022-08-01T01:59:00;4.55;;;2.03;;
62580;SDS011;48640;48.770;9.148;2022-08-01T02:01:31;5.50;;;2.17;;
62580;SDS011;48640;48.770;9.148;2022-08-01T02:04:00;4.13;;;2.30;;
62580;SDS011;48640;48.770;9.148;2022-08-01T02:06:28;3.92;;;2.05;;
62580;SDS011;48640;48.770;9.148;2022-08-01T02:08:57;2.70;;;2.03;;
62580;SDS011;48640;48.770;9.148;2022-08-01T02:11:27;3.70;;;2.00;;
62580;SDS011;48640;48.770;9.148;2022-08-01T02:13:55;3.42;;;1.92;;
62580;SDS011;48640;48.770;9.148;2022-08-01T02:16:25;3.15;;;1.92;;
62580;SDS011;48640;48.770;9.148;2022-08-01T02:18:56;2.40;;;1.75;;
62580;SDS011;48640;48.770;9.148;2022-08-01T02:21:25;2.63;;;1.90;;
62580;SDS011;48640;48.770;9.148;2022-08-01T02:23:54;2.70;;;1.70;;
62580;SDS011;48640;48.770;9.148;2022-08-01T02:26:22;3.53;;;1.73;;
62580;SDS011;48640;48.770;9.148;2022-08-01T02:28:52;3.22;;;1.73;;
62580;SDS011;48640;48.770;9.148;2022-08-01T02:31:22;4.18;;;2.55;;
62580;SDS011;48640;48.770;9.148;2022-08-01T02:33:52;3.92;;;2.47;;
62580;SDS011;48640;48.770;9.148;2022-08-01T02:36:25;4.20;;;1.98;;
62580;SDS011;48640;48.770;9.148;2022-08-01T02:38:54;2.60;;;1.80;;
62580;SDS011;48640;48.770;9.148;2022-08-01T02:41:23;3.20;;;1.77;;
62580;SDS011;48640;48.770;9.148;2022-08-01T02:43:52;2.45;;;1.40;;
62580;SDS011;48640;48.770;9.148;2022-08-01T02:46:26;3.45;;;2.45;;
62580;SDS011;48640;48.770;9.148;2022-08-01T02:48:58;7.63;;;2.05;;
62580;SDS011;48640;48.770;9.148;2022-08-01T02:51:28;4.25;;;2.17;;
62580;SDS011;48640;48.770;9.148;2022-08-01T02:53:57;2.92;;;1.95;;
62580;SDS011;48640;48.770;9.148;2022-08-01T02:58:59;2.92;;;1.80;;
62580;SDS011;48640;48.770;9.148;2022-08-01T03:01:31;4.10;;;2.40;;
62580;SDS011;48640;48.770;9.148;2022-08-01T03:04:01;4.43;;;2.38;;
62580;SDS011;48640;48.770;9.148;2022-08-01T03:06:29;2.90;;;1.70;;
62580;SDS011;48640;48.770;9.148;2022-08-01T03:08:57;2.75;;;1.60;;
62580;SDS011;48640;48.770;9.148;2022-08-01T03:11:26;4.82;;;2.03;;
62580;SDS011;48640;48.770;9.148;2022-08-01T03:13:55;2.88;;;1.90;;
62580;SDS011;48640;48.770;9.148;2022-08-01T03:16:25;3.30;;;1.98;;
62580;SDS011;48640;48.770;9.148;2022-08-01T03:18:53;3.45;;;2.22;;
62580;SDS011;48640;48.770;9.148;2022-08-01T03:21:24;3.47;;;1.83;;
62580;SDS011;48640;48.770;9.148;2022-08-01T03:23:53;4.18;;;2.20;;
62580;SDS011;48640;48.770;9.148;2022-08-01T03:26:24;3.10;;;1.60;;
62580;SDS011;48640;48.770;9.148;2022-08-01T03:28:54;5.13;;;1.88;;
62580;SDS011;48640;48.770;9.148;2022-08-01T03:31:24;3.33;;;1.70;;
62580;SDS011;48640;48.770;9.148;2022-08-01T03:33:52;2.95;;;1.73;;
62580;SDS011;48640;48.770;9.148;2022-08-01T03:36:20;3.13;;;2.08;;
62580;SDS011;48640;48.770;9.148;2022-08-01T03:38:51;4.47;;;1.70;;
62580;SDS011;48640;48.770;9.148;2022-08-01T03:41:21;4.00;;;1.98;;
62580;SDS011;48640;48.770;9.148;2022-08-01T03:43:51;3.25;;;1.77;;
62580;SDS011;48640;48.770;9.148;2022-08-01T03:46:22;3.63;;;2.00;;
62580;SDS011;48640;48.770;9.148;2022-08-01T03:48:53;4.28;;;2.47;;
62580;SDS011;48640;48.770;9.148;2022-08-01T03:51:24;2.97;;;1.92;;
62580;SDS011;48640;48.770;9.148;2022-08-01T03:53:53;2.92;;;2.13;;
62580;SDS011;48640;48.770;9.148;2022-08-01T03:56:21;5.97;;;1.85;;
62580;SDS011;48640;48.770;9.148;2022-08-01T03:58:50;2.97;;;2.03;;
62580;SDS011;48640;48.770;9.148;2022-08-01T04:01:17;2.67;;;1.70;;
62580;SDS011;48640;48.770;9.148;2022-08-01T04:03:44;2.80;;;1.63;;
62580;SDS011;48640;48.770;9.148;2022-08-01T04:06:11;3.97;;;1.90;;
62580;SDS011;48640;48.770;9.148;2022-08-01T04:08:39;2.38;;;1.50;;
62580;SDS011;48640;48.770;9.148;2022-08-01T04:11:07;3.50;;;1.70;;
62580;SDS011;48640;48.770;9.148;2022-08-01T04:13:35;2.83;;;1.75;;
62580;SDS011;48640;48.770;9.148;2022-08-01T04:16:02;2.20;;;1.35;;
62580;SDS011;48640;48.770;9.148;2022-08-01T04:18:29;2.72;;;1.73;;
62580;SDS011;48640;48.770;9.148;2022-08-01T04:20:57;6.53;;;1.92;;
62580;SDS011;48640;48.770;9.148;2022-08-01T04:23:24;2.83;;;1.85;;
62580;SDS011;48640;48.770;9.148;2022-08-01T04:25:53;3.13;;;1.85;;
62580;SDS011;48640;48.770;9.148;2022-08-01T04:28:23;3.67;;;1.60;;
62580;SDS011;48640;48.770;9.148;2022-08-01T04:30:52;3.87;;;1.80;;
62580;SDS011;48640;48.770;9.148;2022-08-01T04:33:21;2.85;;;1.63;;
62580;SDS011;48640;48.770;9.148;2022-08-01T04:35:49;3.20;;;1.65;;
62580;SDS011;48640;48.770;9.148;2022-08-01T04:38:19;2.87;;;1.70;;
62580;SDS011;48640;48.770;9.148;2022-08-01T04:40:48;3.05;;;1.90;;
62580;SDS011;48640;48.770;9.148;2022-08-01T04:43:17;2.38;;;1.65;;
62580;SDS011;48640;48.770;9.148;2022-08-01T04:45:45;3.10;;;2.30;;
62580;SDS011;48640;48.770;9.148;2022-08-01T04:48:13;3.83;;;1.48;;
62580;SDS011;48640;48.770;9.148;2022-08-01T04:50:42;3.42;;;1.80;;
62580;SDS011;48640;48.770;9.148;2022-08-01T04:53:12;3.58;;;1.63;;
62580;SDS011;48640;48.770;9.148;2022-08-01T04:55:39;3.35;;;1.60;;
62580;SDS011;48640;48.770;9.148;2022-08-01T04:58:06;2.65;;;1.60;;
62580;SDS011;48640;48.770;9.148;2022-08-01T05:00:34;2.95;;;1.30;;
62580;SDS011;48640;48.770;9.148;2022-08-01T05:03:03;2.15;;;1.40;;
62580;SDS011;48640;48.770;9.148;2022-08-01T05:05:30;2.92;;;1.50;;
62580;SDS011;48640;48.770;9.148;2022-08-01T05:07:57;2.72;;;1.60;;
62580;SDS011;48640;48.770;9.148;2022-08-01T05:10:23;3.78;;;1.98;;
62580;SDS011;48640;48.770;9.148;2022-08-01T05:12:51;3.47;;;1.55;;
62580;SDS011;48640;48.770;9.148;2022-08-01T05:15:18;3.88;;;1.52;;
62580;SDS011;48640;48.770;9.148;2022-08-01T05:17:45;3.95;;;2.22;;
62580;SDS011;48640;48.770;9.148;2022-08-01T05:20:13;2.58;;;1.35;;
62580;SDS011;48640;48.770;9.148;2022-08-01T05:22:40;1.80;;;1.30;;
62580;SDS011;48640;48.770;9.148;2022-08-01T05:25:07;2.60;;;1.30;;
62580;SDS011;48640;48.770;9.148;2022-08-01T05:27:34;2.45;;;1.48;;
62580;SDS011;48640;48.770;9.148;2022-08-01T05:30:04;4.88;;;1.48;;
62580;SDS011;48640;48.770;9.148;2022-08-01T05:32:32;2.65;;;1.33;;
62580;SDS011;48640;48.770;9.148;2022-08-01T05:34:59;3.42;;;1.10;;
62580;SDS011;48640;48.770;9.148;2022-08-01T05:37:27;2.28;;;1.10;;
62580;SDS011;48640;48.770;9.148;2022-08-01T05:39:54;2.58;;;1.15;;
62580;SDS011;48640;48.770;9.148;2022-08-01T05:42:21;2.58;;;1.42;;
62580;SDS011;48640;48.770;9.148;2022-08-01T05:44:48;3.15;;;1.20;;
62580;SDS011;48640;48.770;9.148;2022-08-01T05:47:15;1.95;;;1.20;;
62580;SDS011;48640;48.770;9.148;2022-08-01T05:49:42;2.38;;;1.20;;
62580;SDS011;48640;48.770;9.148;2022-08-01T05:52:09;2.50;;;1.10;;
62580;SDS011;48640;48.770;9.148;2022-08-01T05:54:38;1.92;;;1.15;;
62580;SDS011;48640;48.770;9.148;2022-08-01T05:57:04;2.33;;;1.35;;
62580;SDS011;48640;48.770;9.148;2022-08-01T05:59:31;2.55;;;1.35;;
62580;SDS011;48640;48.770;9.148;2022-08-01T06:01:59;3.35;;;1.27;;
62580;SDS011;48640;48.770;9.148;2022-08-01T06:04:26;1.85;;;1.17;;
62580;SDS011;48640;48.770;9.148;2022-08-01T06:06:52;2.55;;;1.20;;
62580;SDS011;48640;48.770;9.148;2022-08-01T06:09:19;2.58;;;1.23;;
62580;SDS011;48640;48.770;9.148;2022-08-01T06:11:47;2.00;;;1.10;;
62580;SDS011;48640;48.770;9.148;2022-08-01T06:14:14;2.83;;;1.25;;
62580;SDS011;48640;48.770;9.148;2022-08-01T06:16:41;1.40;;;1.10;;
62580;SDS011;48640;48.770;9.148;2022-08-01T06:19:08;2.47;;;1.30;;
62580;SDS011;48640;48.770;9.148;2022-08-01T06:21:35;1.63;;;1.00;;
62580;SDS011;48640;48.770;9.148;2022-08-01T06:24:02;2.13;;;1.17;;
62580;SDS011;48640;48.770;9.148;2022-08-01T06:26:29;2.30;;;1.00;;
62580;SDS011;48640;48.770;9.148;2022-08-01T06:28:58;2.38;;;1.58;;
62580;SDS011;48640;48.770;9.148;2022-08-01T06:31:25;2.40;;;1.40;;
62580;SDS011;48640;48.770;9.148;2022-08-01T06:33:52;1.85;;;0.93;;
62580;SDS011;48640;48.770;9.148;2022-08-01T06:36:18;3.50;;;1.50;;
62580;SDS011;48640;48.770;9.148;2022-08-01T06:38:45;2.28;;;1.00;;
62580;SDS011;48640;48.770;9.148;2022-08-01T06:41:12;1.73;;;1.00;;
62580;SDS011;48640;48.770;9.148;2022-08-01T06:43:39;1.63;;;0.90;;
62580;SDS011;48640;48.770;9.148;2022-08-01T06:46:07;2.20;;;1.10;;
62580;SDS011;48640;48.770;9.148;2022-08-01T06:48:34;2.30;;;1.20;;
62580;SDS011;48640;48.770;9.148;2022-08-01T06:51:04;2.05;;;1.17;;
62580;SDS011;48640;48.770;9.148;2022-08-01T06:53:34;2.63;;;1.00;;
62580;SDS011;48640;48.770;9.148;2022-08-01T06:56:01;2.35;;;1.23;;
62580;SDS011;48640;48.770;9.148;2022-08-01T06:58:28;1.63;;;1.08;;
62580;SDS011;48640;48.770;9.148;2022-08-01T07:00:55;1.67;;;0.88;;
62580;SDS011;48640;48.770;9.148;2022-08-01T07:03:23;2.63;;;1.17;;
62580;SDS011;48640;48.770;9.148;2022-08-01T07:05:50;2.03;;;1.10;;
62580;SDS011;48640;48.770;9.148;2022-08-01T07:08:17;1.70;;;1.00;;
62580;SDS011;48640;48.770;9.148;2022-08-01T07:10:44;2.20;;;1.23;;
62580;SDS011;48640;48.770;9.148;2022-08-01T07:13:10;2.40;;;1.23;;
62580;SDS011;48640;48.770;9.148;2022-08-01T07:15:39;1.80;;;1.00;;
62580;SDS011;48640;48.770;9.148;2022-08-01T07:18:06;1.95;;;1.25;;
62580;SDS011;48640;48.770;9.148;2022-08-01T07:20:34;1.90;;;1.20;;
62580;SDS011;48640;48.770;9.148;2022-08-01T07:23:03;1.35;;;0.90;;
62580;SDS011;48640;48.770;9.148;2022-08-01T07:25:30;2.92;;;1.02;;
62580;SDS011;48640;48.770;9.148;2022-08-01T07:27:57;2.50;;;0.98;;
62580;SDS011;48640;48.770;9.148;2022-08-01T07:30:23;4.07;;;1.63;;
62580;SDS011;48640;48.770;9.148;2022-08-01T07:32:51;2.97;;;1.67;;
62580;SDS011;48640;48.770;9.148;2022-08-01T07:35:18;1.92;;;1.40;;
62580;SDS011;48640;48.770;9.148;2022-08-01T07:37:46;2.53;;;1.00;;
62580;SDS011;48640;48.770;9.148;2022-08-01T07:40:13;2.83;;;1.13;;
62580;SDS011;48640;48.770;9.148;2022-08-01T07:42:40;1.90;;;1.17;;
62580;SDS011;48640;48.770;9.148;2022-08-01T07:45:08;3.38;;;1.17;;
62580;SDS011;48640;48.770;9.148;2022-08-01T07:47:36;1.52;;;1.00;;
62580;SDS011;48640;48.770;9.148;2022-08-01T07:50:03;2.85;;;1.45;;
62580;SDS011;48640;48.770;9.148;2022-08-01T07:52:31;3.00;;;1.40;;
62580;SDS011;48640;48.770;9.148;2022-08-01T07:54:59;2.15;;;1.25;;
62580;SDS011;48640;48.770;9.148;2022-08-01T07:57:26;3.95;;;1.75;;
62580;SDS011;48640;48.770;9.148;2022-08-01T07:59:53;5.28;;;1.63;;
62580;SDS011;48640;48.770;9.148;2022-08-01T08:02:20;4.40;;;1.42;;
62580;SDS011;48640;48.770;9.148;2022-08-01T08:04:47;1.75;;;1.13;;
62580;SDS011;48640;48.770;9.148;2022-08-01T08:07:14;2.05;;;1.08;;
62580;SDS011;48640;48.770;9.148;2022-08-01T08:09:40;3.20;;;1.50;;
62580;SDS011;48640;48.770;9.148;2022-08-01T08:12:09;4.32;;;1.92;;
62580;SDS011;48640;48.770;9.148;2022-08-01T08:14:37;2.92;;;1.80;;
62580;SDS011;48640;48.770;9.148;2022-08-01T08:17:03;3.05;;;1.50;;
62580;SDS011;48640;48.770;9.148;2022-08-01T08:19:31;2.33;;;1.60;;
62580;SDS011;48640;48.770;9.148;2022-08-01T08:21:58;5.13;;;1.45;;
62580;SDS011;48640;48.770;9.148;2022-08-01T08:24:25;3.17;;;1.20;;
62580;SDS011;48640;48.770;9.148;2022-08-01T08:26:53;1.92;;;1.23;;
62580;SDS011;48640;48.770;9.148;2022-08-01T08:29:23;2.80;;;1.27;;
62580;SDS011;48640;48.770;9.148;2022-08-01T08:31:51;4.07;;;1.88;;
62580;SDS011;48640;48.770;9.148;2022-08-01T08:34:18;3.45;;;1.40;;
62580;SDS011;48640;48.770;9.148;2022-08-01T08:36:45;3.30;;;1.23;;
62580;SDS011;48640;48.770;9.148;2022-08-01T08:39:12;5.68;;;1.83;;
62580;SDS011;48640;48.770;9.148;2022-08-01T08:41:39;4.07;;;1.90;;
62580;SDS011;48640;48.770;9.148;2022-08-01T08:44:06;2.72;;;1.85;;
62580;SDS011;48640;48.770;9.148;2022-08-01T08:49:05;3.55;;;2.33;;
62580;SDS011;48640;48.770;9.148;2022-08-01T08:51:33;2.88;;;2.05;;
62580;SDS011;48640;48.770;9.148;2022-08-01T08:54:03;4.97;;;2.13;;
62580;SDS011;48640;48.770;9.148;2022-08-01T08:56:31;3.17;;;2.13;;
62580;SDS011;48640;48.770;9.148;2022-08-01T08:59:01;4.13;;;1.88;;
62580;SDS011;48640;48.770;9.148;2022-08-01T09:01:28;2.53;;;1.77;;
62580;SDS011;48640;48.770;9.148;2022-08-01T09:04:00;2.92;;;1.90;;
62580;SDS011;48640;48.770;9.148;2022-08-01T09:06:27;3.75;;;1.70;;
62580;SDS011;48640;48.770;9.148;2022-08-01T09:08:54;4.90;;;2.15;;
62580;SDS011;48640;48.770;9.148;2022-08-01T09:11:21;3.72;;;2.08;;
62580;SDS011;48640;48.770;9.148;2022-08-01T09:14:00;3.80;;;2.00;;
62580;SDS011;48640;48.770;9.148;2022-08-01T09:16:29;3.55;;;2.38;;
62580;SDS011;48640;48.770;9.148;2022-08-01T09:19:07;3.60;;;2.40;;
62580;SDS011;48640;48.770;9.148;2022-08-01T09:21:35;4.65;;;2.97;;
62580;SDS011;48640;48.770;9.148;2022-08-01T09:24:03;3.85;;;3.08;;
62580;SDS011;48640;48.770;9.148;2022-08-01T09:26:32;7.03;;;3.65;;
62580;SDS011;48640;48.770;9.148;2022-08-01T09:31:28;4.40;;;3.33;;
62580;SDS011;48640;48.770;9.148;2022-08-01T09:33:55;6.65;;;3.70;;
62580;SDS011;48640;48.770;9.148;2022-08-01T09:36:26;4.50;;;3.80;;
62580;SDS011;48640;48.770;9.148;2022-08-01T09:39:11;5.85;;;4.20;;
62580;SDS011;48640;48.770;9.148;2022-08-01T09:41:39;7.15;;;4.90;;
62580;SDS011;48640;48.770;9.148;2022-08-01T09:44:06;6.60;;;4.57;;
62580;SDS011;48640;48.770;9.148;2022-08-01T09:46:33;5.60;;;4.15;;
62580;SDS011;48640;48.770;9.148;2022-08-01T09:49:02;5.25;;;4.13;;
62580;SDS011;48640;48.770;9.148;2022-08-01T09:51:32;4.60;;;3.38;;
62580;SDS011;48640;48.770;9.148;2022-08-01T09:54:00;5.20;;;3.63;;
62580;SDS011;48640;48.770;9.148;2022-08-01T09:56:35;4.90;;;3.33;;
62580;SDS011;48640;48.770;9.148;2022-08-01T09:59:03;4.65;;;3.65;;
62580;SDS011;48640;48.770;9.148;2022-08-01T10:01:41;5.50;;;3.75;;
62580;SDS011;48640;48.770;9.148;2022-08-01T10:04:10;5.32;;;4.28;;
62580;SDS011;48640;48.770;9.148;2022-08-01T10:06:42;4.03;;;3.38;;
62580;SDS011;48640;48.770;9.148;2022-08-01T10:09:10;5.25;;;3.13;;
62580;SDS011;48640;48.770;9.148;2022-08-01T10:11:39;6.55;;;3.20;;
62580;SDS011;48640;48.770;9.148;2022-08-01T10:14:07;4.75;;;3.50;;
62580;SDS011;48640;48.770;9.148;2022-08-01T10:16:34;3.88;;;2.72;;
62580;SDS011;48640;48.770;9.148;2022-08-01T10:19:02;5.30;;;3.08;;
62580;SDS011;48640;48.770;9.148;2022-08-01T10:21:32;3.67;;;2.70;;
62580;SDS011;48640;48.770;9.148;2022-08-01T10:24:01;3.78;;;2.80;;
62580;SDS011;48640;48.770;9.148;2022-08-01T10:26:31;4.50;;;2.58;;
62580;SDS011;48640;48.770;9.148;2022-08-01T10:28:59;4.85;;;2.35;;
62580;SDS011;48640;48.770;9.148;2022-08-01T10:31:28;3.88;;;2.63;;
62580;SDS011;48640;48.770;9.148;2022-08-01T10:33:58;4.18;;;2.05;;
62580;SDS011;48640;48.770;9.148;2022-08-01T10:36:26;2.78;;;2.17;;
62580;SDS011;48640;48.770;9.148;2022-08-01T10:38:54;3.15;;;1.75;;
62580;SDS011;48640;48.770;9.148;2022-08-01T10:41:22;6.40;;;2.78;;
62580;SDS011;48640;48.770;9.148;2022-08-01T10:43:51;4.72;;;1.90;;
62580;SDS011;48640;48.770;9.148;2022-08-01T10:46:18;4.13;;;1.95;;
62580;SDS011;48640;48.770;9.148;2022-08-01T10:48:47;5.57;;;2.50;;
62580;SDS011;48640;48.770;9.148;2022-08-01T10:51:20;4.82;;;2.63;;
62580;SDS011;48640;48.770;9.148;2022-08-01T10:53:48;4.22;;;2.03;;
62580;SDS011;48640;48.770;9.148;2022-08-01T10:56:17;3.20;;;2.10;;
62580;SDS011;48640;48.770;9.148;2022-08-01T10:58:46;4.57;;;2.53;;
62580;SDS011;48640;48.770;9.148;2022-08-01T11:01:18;4.10;;;2.60;;
62580;SDS011;48640;48.770;9.148;2022-08-01T11:04:04;3.90;;;3.10;;
62580;SDS011;48640;48.770;9.148;2022-08-01T11:06:43;3.58;;;2.72;;
62580;SDS011;48640;48.770;9.148;2022-08-01T11:09:29;3.22;;;2.38;;
62580;SDS011;48640;48.770;9.148;2022-08-01T11:12:01;11.77;;;2.42;;
62580;SDS011;48640;48.770;9.148;2022-08-01T11:14:33;2.92;;;1.88;;
62580;SDS011;48640;48.770;9.148;2022-08-01T11:17:30;3.65;;;2.70;;
62580;SDS011;48640;48.770;9.148;2022-08-01T11:20:07;3.00;;;2.40;;
62580;SDS011;48640;48.770;9.148;2022-08-01T11:28:40;5.30;;;2.70;;
62580;SDS011;48640;48.770;9.148;2022-08-01T11:31:30;2.72;;;1.98;;
62580;SDS011;48640;48.770;9.148;2022-08-01T11:33:58;2.97;;;2.07;;
62580;SDS011;48640;48.770;9.148;2022-08-01T11:36:26;2.70;;;1.60;;
62580;SDS011;48640;48.770;9.148;2022-08-01T11:41:41;5.22;;;2.05;;
62580;SDS011;48640;48.770;9.148;2022-08-01T11:44:09;3.55;;;1.70;;
62580;SDS011;48640;48.770;9.148;2022-08-01T11:46:56;2.95;;;1.65;;
62580;SDS011;48640;48.770;9.148;2022-08-01T11:49:30;3.58;;;2.10;;
62580;SDS011;48640;48.770;9.148;2022-08-01T11:52:09;5.05;;;1.90;;
62580;SDS011;48640;48.770;9.148;2022-08-01T11:54:38;3.08;;;1.83;;
62580;SDS011;48640;48.770;9.148;2022-08-01T11:57:06;2.83;;;2.00;;
62580;SDS011;48640;48.770;9.148;2022-08-01T11:59:37;2.53;;;1.83;;
62580;SDS011;48640;48.770;9.148;2022-08-01T12:02:16;2.60;;;1.80;;
62580;SDS011;48640;48.770;9.148;2022-08-01T12:04:48;3.42;;;2.08;;
62580;SDS011;48640;48.770;9.148;2022-08-01T12:07:18;3.63;;;2.40;;
62580;SDS011;48640;48.770;9.148;2022-08-01T12:09:45;3.25;;;1.63;;
62580;SDS011;48640;48.770;9.148;2022-08-01T12:12:14;4.53;;;1.90;;
62580;SDS011;48640;48.770;9.148;2022-08-01T12:14:44;3.78;;;1.90;;
62580;SDS011;48640;48.770;9.148;2022-08-01T12:17:11;3.30;;;1.63;;
62580;SDS011;48640;48.770;9.148;2022-08-01T12:19:40;2.53;;;1.90;;
62580;SDS011;48640;48.770;9.148;2022-08-01T12:22:08;6.90;;;2.60;;
62580;SDS011;48640;48.770;9.148;2022-08-01T12:24:36;2.65;;;1.77;;
62580;SDS011;48640;48.770;9.148;2022-08-01T12:27:05;2.92;;;1.80;;
62580;SDS011;48640;48.770;9.148;2022-08-01T12:29:33;4.97;;;1.80;;
62580;SDS011;48640;48.770;9.148;2022-08-01T12:32:00;10.43;;;2.13;;
62580;SDS011;48640;48.770;9.148;2022-08-01T12:34:28;3.10;;;2.10;;
62580;SDS011;48640;48.770;9.148;2022-08-01T12:37:00;5.10;;;2.10;;
62580;SDS011;48640;48.770;9.148;2022-08-01T12:39:31;4.20;;;2.67;;
62580;SDS011;48640;48.770;9.148;2022-08-01T12:41:58;2.70;;;1.80;;
62580;SDS011;48640;48.770;9.148;2022-08-01T12:44:25;3.15;;;2.20;;
62580;SDS011;48640;48.770;9.148;2022-08-01T12:46:54;3.28;;;2.00;;
62580;SDS011;48640;48.770;9.148;2022-08-01T12:49:21;2.97;;;1.80;;
62580;SDS011;48640;48.770;9.148;2022-08-01T12:51:48;2.88;;;1.98;;
62580;SDS011;48640;48.770;9.148;2022-08-01T12:54:17;2.42;;;1.75;;
62580;SDS011;48640;48.770;9.148;2022-08-01T12:56:44;3.50;;;2.00;;
62580;SDS011;48640;48.770;9.148;2022-08-01T12:59:21;2.53;;;1.70;;
62580;SDS011;48640;48.770;9.148;2022-08-01T13:01:50;2.80;;;1.38;;
62580;SDS011;48640;48.770;9.148;2022-08-01T13:04:17;2.85;;;1.77;;
62580;SDS011;48640;48.770;9.148;2022-08-01T13:06:44;3.13;;;1.67;;
62580;SDS011;48640;48.770;9.148;2022-08-01T13:09:12;8.38;;;2.10;;
62580;SDS011;48640;48.770;9.148;2022-08-01T13:11:40;4.53;;;2.05;;
62580;SDS011;48640;48.770;9.148;2022-08-01T13:14:08;5.78;;;2.22;;
62580;SDS011;48640;48.770;9.148;2022-08-01T13:16:45;4.90;;;1.65;;
62580;SDS011;48640;48.770;9.148;2022-08-01T13:19:12;3.42;;;1.45;;
62580;SDS011;48640;48.770;9.148;2022-08-01T13:21:43;3.85;;;1.80;;
62580;SDS011;48640;48.770;9.148;2022-08-01T13:24:24;2.67;;;1.75;;
62580;SDS011;48640;48.770;9.148;2022-08-01T13:26:55;3.15;;;1.80;;
62580;SDS011;48640;48.770;9.148;2022-08-01T13:29:30;7.32;;;2.55;;
62580;SDS011;48640;48.770;9.148;2022-08-01T13:31:59;2.28;;;1.60;;
62580;SDS011;48640;48.770;9.148;2022-08-01T13:34:30;3.67;;;1.77;;
62580;SDS011;48640;48.770;9.148;2022-08-01T13:36:57;6.20;;;1.98;;
62580;SDS011;48640;48.770;9.148;2022-08-01T13:39:26;2.67;;;1.45;;
62580;SDS011;48640;48.770;9.148;2022-08-01T13:42:11;3.17;;;1.70;;
62580;SDS011;48640;48.770;9.148;2022-08-01T13:44:39;3.78;;;2.00;;
62580;SDS011;48640;48.770;9.148;2022-08-01T13:47:06;4.40;;;1.70;;
62580;SDS011;48640;48.770;9.148;2022-08-01T13:49:33;3.55;;;1.42;;
62580;SDS011;48640;48.770;9.148;2022-08-01T13:52:00;5.20;;;1.88;;
62580;SDS011;48640;48.770;9.148;2022-08-01T13:54:28;2.50;;;1.42;;
62580;SDS011;48640;48.770;9.148;2022-08-01T13:56:56;2.90;;;1.55;;
62580;SDS011;48640;48.770;9.148;2022-08-01T13:59:24;4.65;;;1.58;;
62580;SDS011;48640;48.770;9.148;2022-08-01T14:01:51;4.10;;;1.90;;
62580;SDS011;48640;48.770;9.148;2022-08-01T14:04:18;2.78;;;1.60;;
62580;SDS011;48640;48.770;9.148;2022-08-01T14:06:46;2.33;;;1.30;;
62580;SDS011;48640;48.770;9.148;2022-08-01T14:09:13;3.03;;;1.73;;
62580;SDS011;48640;48.770;9.148;2022-08-01T14:11:41;3.40;;;1.80;;
62580;SDS011;48640;48.770;9.148;2022-08-01T14:14:08;2.97;;;1.70;;
62580;SDS011;48640;48.770;9.148;2022-08-01T14:16:36;3.67;;;1.77;;
62580;SDS011;48640;48.770;9.148;2022-08-01T14:21:31;4.32;;;1.85;;
62580;SDS011;48640;48.770;9.148;2022-08-01T14:23:57;4.90;;;1.80;;
62580;SDS011;48640;48.770;9.148;2022-08-01T14:26:24;2.95;;;1.70;;
62580;SDS011;48640;48.770;9.148;2022-08-01T14:28:51;2.45;;;1.60;;
62580;SDS011;48640;48.770;9.148;2022-08-01T14:31:18;2.67;;;1.75;;
62580;SDS011;48640;48.770;9.148;2022-08-01T14:33:46;2.67;;;1.80;;
62580;SDS011;48640;48.770;9.148;2022-08-01T14:36:13;2.72;;;1.60;;
62580;SDS011;48640;48.770;9.148;2022-08-01T14:38:39;3.72;;;1.83;;
62580;SDS011;48640;48.770;9.148;2022-08-01T14:41:06;4.40;;;1.50;;
62580;SDS011;48640;48.770;9.148;2022-08-01T14:43:33;2.03;;;1.17;;
62580;SDS011;48640;48.770;9.148;2022-08-01T14:46:00;2.17;;;1.42;;
62580;SDS011;48640;48.770;9.148;2022-08-01T14:48:28;2.30;;;1.50;;
62580;SDS011;48640;48.770;9.148;2022-08-01T14:50:56;3.00;;;1.50;;
62580;SDS011;48640;48.770;9.148;2022-08-01T14:53:24;5.13;;;1.92;;
62580;SDS011;48640;48.770;9.148;2022-08-01T14:55:50;5.75;;;1.92;;
62580;SDS011;48640;48.770;9.148;2022-08-01T14:58:17;2.90;;;1.75;;
62580;SDS011;48640;48.770;9.148;2022-08-01T15:00:44;4.05;;;1.75;;
62580;SDS011;48640;48.770;9.148;2022-08-01T15:03:11;6.10;;;2.20;;
62580;SDS011;48640;48.770;9.148;2022-08-01T15:05:38;2.35;;;1.23;;
62580;SDS011;48640;48.770;9.148;2022-08-01T15:08:06;2.90;;;1.88;;
62580;SDS011;48640;48.770;9.148;2022-08-01T15:10:33;1.90;;;1.20;;
62580;SDS011;48640;48.770;9.148;2022-08-01T15:13:00;3.58;;;1.75;;
62580;SDS011;48640;48.770;9.148;2022-08-01T15:15:27;2.38;;;1.58;;
62580;SDS011;48640;48.770;9.148;2022-08-01T15:17:53;3.65;;;1.70;;